KPHX/PHX METAR and TAF weather

Enter ICAO airport designator
Station Type Date Time Source
KPHX METAR 2019/12/14 18:51 UTC NOAA

KPHX 141851Z 12005KT 10SM FEW170 BKN250 18/07 A2988 RMK AO2 SLP110 T01780072 $


Station Type Date Time Source
KPHX Decoded METAR 2019/12/14 18:51 UTC NOAA

Phoenix, Phoenix Sky Harbor International Airport, AZ, United States (KPHX) 33-26-03N 112-03-04W 336M
Dec 14, 2019 - 01:51 PM EST / 2019.12.14 1851 UTC
Wind: from the ESE (120 degrees) at 6 MPH (5 KT):0
Visibility: 10 mile(s):0
Sky conditions: mostly cloudy
Temperature: 64.0 F (17.8 C)
Dew Point: 45.0 F (7.2 C)
Relative Humidity: 49%
Pressure (altimeter): 29.88 in. Hg (1011 hPa)
ob: KPHX 141851Z 12005KT 10SM FEW170 BKN250 18/07 A2988 RMK AO2 SLP110 T01780072
cycle: 19

Station Type Date Time Source
KPHX TAF 2019/12/14 18:42 UTC NOAA

TAF KPHX 141741Z 1418/1524 12007KT P6SM FEW180 SCT250
FM142100 26007KT P6SM SCT200
FM150300 VRB06KT P6SM FEW060 BKN150
FM151600 26007KT P6SM SCT250

Example: see airport list